createdAt,value
2023-02-11T00:00:20.254Z,102501.22
2023-02-11T00:00:52.049Z,102503.03
2023-02-11T00:01:32.809Z,102506.50
2023-02-11T00:02:05.375Z,102504.91
2023-02-11T00:02:37.210Z,102501.22
2023-02-11T00:03:09.561Z,102501.81
2023-02-11T00:03:41.374Z,102504.19
2023-02-11T00:04:13.519Z,102505.91
2023-02-11T00:04:45.190Z,102504.25
2023-02-11T00:05:16.919Z,102501.88
2023-02-11T00:06:03.276Z,102502.75
2023-02-11T00:06:36.427Z,102498.47
2023-02-11T00:07:08.100Z,102501.78
2023-02-11T00:07:39.793Z,102499.97
2023-02-11T00:08:16.966Z,102501.63
2023-02-11T00:08:48.735Z,102503.25
2023-02-11T00:09:20.423Z,102506.78
2023-02-11T00:09:52.128Z,102500.81
2023-02-11T00:10:23.770Z,102499.09
2023-02-11T00:10:57.353Z,102501.69
2023-02-11T00:11:30.570Z,102498.41
2023-02-11T00:12:02.338Z,102499.28
2023-02-11T00:12:35.501Z,102499.22
2023-02-11T00:13:07.160Z,102495.00
2023-02-11T00:13:38.823Z,102489.94
2023-02-11T00:14:11.775Z,102493.41
2023-02-11T00:14:43.515Z,102500.16
2023-02-11T00:15:15.266Z,102492.44
2023-02-11T00:15:47.081Z,102496.69
2023-02-11T00:16:21.251Z,102500.91
2023-02-11T00:16:53.008Z,102494.75
2023-02-11T00:17:24.876Z,102493.88
2023-02-11T00:17:56.541Z,102496.28
2023-02-11T00:18:28.831Z,102489.47
2023-02-11T00:19:02.336Z,102489.41
2023-02-11T00:19:34.031Z,102488.50
2023-02-11T00:20:08.225Z,102496.28
2023-02-11T00:20:40.301Z,102491.19
2023-02-11T00:21:14.689Z,102490.34
2023-02-11T00:21:46.376Z,102496.13
2023-02-11T00:22:18.820Z,102486.81
2023-02-11T00:22:50.471Z,102490.16
2023-02-11T00:23:22.135Z,102486.81
2023-02-11T00:23:57.290Z,102486.81
2023-02-11T00:24:30.172Z,102485.94
2023-02-11T00:25:01.911Z,102477.50
2023-02-11T00:25:33.658Z,102484.25
2023-02-11T00:26:15.622Z,102489.34
2023-02-11T00:26:47.294Z,102482.47
2023-02-11T00:27:19.138Z,102481.47
2023-02-11T00:27:50.802Z,102483.34
2023-02-11T00:28:22.540Z,102486.66
2023-02-11T00:28:54.322Z,102481.56
2023-02-11T00:29:25.979Z,102485.69
2023-02-11T00:29:57.752Z,102481.56
2023-02-11T00:30:29.462Z,102488.28
2023-02-11T00:31:02.570Z,102479.72
2023-02-11T00:31:34.958Z,102481.38
2023-02-11T00:32:08.879Z,102478.00
2023-02-11T00:32:42.635Z,102480.41
2023-02-11T00:33:14.300Z,102477.13
2023-02-11T00:33:46.975Z,102477.09
2023-02-11T00:34:18.701Z,102476.19
2023-02-11T00:34:52.569Z,102479.63
2023-02-11T00:35:24.235Z,102469.44
2023-02-11T00:35:55.898Z,102479.69
2023-02-11T00:36:29.119Z,102478.00
2023-02-11T00:37:00.933Z,102478.72
2023-02-11T00:37:36.409Z,102482.97
2023-02-11T00:38:08.064Z,102479.53
2023-02-11T00:38:39.765Z,102478.50
2023-02-11T00:39:11.451Z,102481.78
2023-02-11T00:39:43.136Z,102477.50
2023-02-11T00:40:16.115Z,102481.88
2023-02-11T00:40:48.500Z,102482.75
2023-02-11T00:41:20.914Z,102488.63
2023-02-11T00:41:52.575Z,102474.16
2023-02-11T00:42:24.312Z,102485.34
2023-02-11T00:42:55.949Z,102477.66
2023-02-11T00:43:27.665Z,102479.22
2023-02-11T00:44:00.234Z,102472.66
2023-02-11T00:44:31.921Z,102477.84
2023-02-11T00:45:04.650Z,102473.56
2023-02-11T00:45:36.363Z,102472.59
2023-02-11T00:46:09.091Z,102475.25
2023-02-11T00:46:40.858Z,102470.97
2023-02-11T00:47:12.748Z,102470.31
2023-02-11T00:47:44.430Z,102467.00
2023-02-11T00:48:16.193Z,102467.97
2023-02-11T00:48:48.118Z,102468.06
2023-02-11T00:49:19.765Z,102464.66
2023-02-11T00:49:51.453Z,102467.19
2023-02-11T00:50:23.706Z,102467.09
2023-02-11T00:50:55.415Z,102467.91
2023-02-11T00:51:28.916Z,102462.97
2023-02-11T00:52:00.835Z,102466.25
2023-02-11T00:52:32.893Z,102466.94
2023-02-11T00:53:04.717Z,102464.44
2023-02-11T00:53:36.896Z,102460.13
2023-02-11T00:54:08.734Z,102469.25
2023-02-11T00:54:40.647Z,102471.69
2023-02-11T00:55:12.382Z,102468.94
2023-02-11T00:55:44.045Z,102463.84
2023-02-11T00:56:15.785Z,102468.06
2023-02-11T00:56:47.479Z,102468.13
2023-02-11T00:57:19.246Z,102469.69
2023-02-11T00:57:51.014Z,102469.56
2023-02-11T00:58:22.955Z,102465.22
2023-02-11T00:58:54.605Z,102465.22
2023-02-11T00:59:26.261Z,102463.59
2023-02-11T00:59:57.897Z,102460.13
2023-02-11T01:00:29.754Z,102466.25
2023-02-11T01:01:01.430Z,102459.44
2023-02-11T01:01:33.239Z,102461.97
2023-02-11T01:02:04.920Z,102464.59
2023-02-11T01:02:36.580Z,102465.47
2023-02-11T01:03:08.240Z,102462.13
2023-02-11T01:03:40.689Z,102458.63
2023-02-11T01:04:12.423Z,102459.44
2023-02-11T01:04:44.060Z,102455.09
2023-02-11T01:05:15.928Z,102459.31
2023-02-11T01:05:47.772Z,102462.84
2023-02-11T01:06:19.578Z,102455.28
2023-02-11T01:06:51.278Z,102457.03
2023-02-11T01:07:23.245Z,102456.16
2023-02-11T01:07:54.936Z,102454.47
2023-02-11T01:08:27.088Z,102449.38
2023-02-11T01:08:58.780Z,102450.97
2023-02-11T01:09:30.747Z,102451.94
2023-02-11T01:10:02.461Z,102449.38
2023-02-11T01:10:34.203Z,102445.97
2023-02-11T01:11:11.987Z,102446.84
2023-02-11T01:11:44.057Z,102448.56
2023-02-11T01:12:15.721Z,102444.28
2023-02-11T01:12:47.884Z,102447.66
2023-02-11T01:13:19.529Z,102448.38
2023-02-11T01:13:51.420Z,102442.41
2023-02-11T01:14:23.419Z,102440.00
2023-02-11T01:14:55.126Z,102438.38
2023-02-11T01:15:26.886Z,102434.22
2023-02-11T01:15:59.164Z,102440.06
2023-02-11T01:16:30.910Z,102434.97
2023-02-11T01:17:05.448Z,102434.91
2023-02-11T01:17:38.241Z,102436.50
2023-02-11T01:18:09.912Z,102438.13
2023-02-11T01:18:44.261Z,102433.09
2023-02-11T01:19:15.959Z,102439.88
2023-02-11T01:19:47.703Z,102437.88
2023-02-11T01:20:26.566Z,102431.88
2023-02-11T01:20:58.227Z,102433.59
2023-02-11T01:21:29.915Z,102435.34
2023-02-11T01:22:01.611Z,102425.03
2023-02-11T01:22:34.396Z,102432.69
2023-02-11T01:23:06.044Z,102425.03
2023-02-11T01:23:37.749Z,102426.84
2023-02-11T01:24:09.412Z,102425.22
2023-02-11T01:24:41.078Z,102424.28
2023-02-11T01:25:12.766Z,102420.00
2023-02-11T01:25:44.680Z,102427.69
2023-02-11T01:26:16.577Z,102425.22
2023-02-11T01:26:48.210Z,102429.44
2023-02-11T01:27:19.984Z,102424.44
2023-02-11T01:27:51.622Z,102423.56
2023-02-11T01:28:26.270Z,102422.66
2023-02-11T01:29:00.126Z,102425.97
2023-02-11T01:29:31.771Z,102426.97
2023-02-11T01:30:07.062Z,102430.38
2023-02-11T01:30:39.539Z,102423.63
2023-02-11T01:31:11.375Z,102423.56
2023-02-11T01:31:43.052Z,102418.38
2023-02-11T01:32:14.839Z,102426.88
2023-02-11T01:32:46.541Z,102425.03
2023-02-11T01:33:18.257Z,102422.50
2023-02-11T01:33:49.952Z,102424.13
2023-02-11T01:34:21.597Z,102421.63
2023-02-11T01:34:53.270Z,102423.25
2023-02-11T01:35:24.924Z,102423.25
2023-02-11T01:36:00.805Z,102422.38
2023-02-11T01:36:32.668Z,102426.47
2023-02-11T01:37:04.351Z,102425.63
2023-02-11T01:37:36.890Z,102418.91
2023-02-11T01:38:14.837Z,102421.28
2023-02-11T01:38:46.484Z,102420.53
2023-02-11T01:39:18.268Z,102413.66
2023-02-11T01:39:50.054Z,102410.94
2023-02-11T01:40:21.770Z,102417.88
2023-02-11T01:41:08.753Z,102412.78
2023-02-11T01:41:40.496Z,102417.78
2023-02-11T01:42:17.076Z,102411.97
2023-02-11T01:42:50.957Z,102419.50
2023-02-11T01:43:24.943Z,102415.31
2023-02-11T01:43:56.618Z,102413.44
2023-02-11T01:44:34.762Z,102423.56
2023-02-11T01:45:43.801Z,102419.28
2023-02-11T01:46:36.316Z,102409.16
2023-02-11T01:47:08.079Z,102416.00
2023-02-11T01:47:39.767Z,102418.53
2023-02-11T01:48:15.477Z,102416.00
2023-02-11T01:48:53.316Z,102413.44
2023-02-11T01:49:30.277Z,102410.28
2023-02-11T01:50:02.904Z,102418.09
2023-02-11T01:50:35.026Z,102416.41
2023-02-11T01:51:13.354Z,102416.50
2023-02-11T01:51:51.765Z,102413.84
2023-02-11T01:52:30.294Z,102412.19
2023-02-11T01:53:22.348Z,102415.69
2023-02-11T01:54:14.163Z,102414.72
2023-02-11T01:55:12.077Z,102414.72
2023-02-11T01:56:02.195Z,102408.59
2023-02-11T01:56:58.000Z,102412.56
2023-02-11T01:57:33.855Z,102407.44
2023-02-11T01:58:06.319Z,102410.84
2023-02-11T01:58:43.503Z,102404.03
2023-02-11T01:59:26.911Z,102407.19
2023-02-11T02:00:07.916Z,102404.59
2023-02-11T02:00:41.695Z,102408.66
2023-02-11T02:01:19.236Z,102406.13
2023-02-11T02:01:57.496Z,102405.19
2023-02-11T02:02:43.940Z,102411.19
2023-02-11T02:03:22.800Z,102407.78
2023-02-11T02:03:59.680Z,102412.81
2023-02-11T02:04:38.900Z,102411.91
2023-02-11T02:05:53.059Z,102417.16
2023-02-11T02:06:35.429Z,102418.84
2023-02-11T02:07:14.656Z,102409.34
2023-02-11T02:08:13.018Z,102413.50
2023-02-11T02:08:52.194Z,102411.09
2023-02-11T02:09:29.028Z,102414.50
2023-02-11T02:10:07.681Z,102413.59
2023-02-11T02:10:43.952Z,102411.75
2023-02-11T02:11:15.914Z,102416.03
2023-02-11T02:11:47.824Z,102414.31
2023-02-11T02:12:19.564Z,102413.50
2023-02-11T02:12:51.475Z,102408.50
2023-02-11T02:13:24.281Z,102418.66
2023-02-11T02:13:55.954Z,102404.22
2023-02-11T02:14:28.956Z,102405.09
2023-02-11T02:15:33.417Z,102406.00
2023-02-11T02:16:09.832Z,102410.34
2023-02-11T02:16:41.987Z,102411.25
2023-02-11T02:17:33.779Z,102408.00
2023-02-11T02:18:10.991Z,102408.84
2023-02-11T02:19:03.892Z,102404.75
2023-02-11T02:19:50.413Z,102403.22
2023-02-11T02:20:40.201Z,102406.72
2023-02-11T02:21:33.133Z,102404.25
2023-02-11T02:22:42.049Z,102406.97
2023-02-11T02:23:41.648Z,102401.88
2023-02-11T02:24:44.463Z,102400.34
2023-02-11T02:25:42.747Z,102401.38
2023-02-11T02:26:45.290Z,102389.41
2023-02-11T02:27:44.707Z,102391.94
2023-02-11T02:28:42.351Z,102396.19
2023-02-11T02:29:22.632Z,102400.41
2023-02-11T02:29:54.248Z,102397.81
2023-02-11T02:30:48.303Z,102393.38
2023-02-11T02:31:50.462Z,102398.59
2023-02-11T02:32:31.229Z,102395.94
2023-02-11T02:33:23.127Z,102395.88
2023-02-11T02:34:02.479Z,102397.56
2023-02-11T02:34:49.502Z,102387.22
2023-02-11T02:35:59.734Z,102400.81
2023-02-11T02:36:47.585Z,102398.47
2023-02-11T02:37:28.502Z,102397.72
2023-02-11T02:38:08.676Z,102393.50
2023-02-11T02:38:40.329Z,102388.34
2023-02-11T02:39:20.210Z,102392.53
2023-02-11T02:39:51.924Z,102399.44
2023-02-11T02:40:38.355Z,102395.31
2023-02-11T02:41:15.670Z,102391.91
2023-02-11T02:41:50.966Z,102386.91
2023-02-11T02:42:23.812Z,102393.69
2023-02-11T02:42:57.058Z,102390.28
2023-02-11T02:43:30.355Z,102389.47
2023-02-11T02:44:02.424Z,102387.72
2023-02-11T02:44:34.366Z,102390.28
2023-02-11T02:45:09.029Z,102385.19
2023-02-11T02:45:40.763Z,102386.97
2023-02-11T02:46:16.441Z,102389.56
2023-02-11T02:46:48.201Z,102391.34
2023-02-11T02:47:19.953Z,102387.91
2023-02-11T02:47:51.609Z,102387.03
2023-02-11T02:48:35.777Z,102379.47
2023-02-11T02:49:13.572Z,102384.47
2023-02-11T02:49:45.320Z,102382.00
2023-02-11T02:50:25.315Z,102392.19
2023-02-11T02:51:06.680Z,102387.16
2023-02-11T02:52:00.033Z,102392.13
2023-02-11T02:52:34.564Z,102387.84
2023-02-11T02:53:08.853Z,102383.56
2023-02-11T02:53:52.260Z,102387.09
2023-02-11T02:54:37.281Z,102388.78
2023-02-11T02:55:31.140Z,102396.19
2023-02-11T02:56:16.988Z,102392.81
2023-02-11T02:56:57.765Z,102386.72
2023-02-11T02:58:01.543Z,102389.34
2023-02-11T02:58:56.378Z,102385.84
2023-02-11T03:00:09.498Z,102391.03
2023-02-11T03:00:54.989Z,102380.75
2023-02-11T03:01:38.678Z,102384.13
2023-02-11T03:02:19.264Z,102379.78
2023-02-11T03:03:06.938Z,102385.75
2023-02-11T03:04:06.325Z,102380.47
2023-02-11T03:04:51.936Z,102372.81
2023-02-11T03:05:34.185Z,102379.69
2023-02-11T03:06:26.158Z,102381.53
2023-02-11T03:07:20.957Z,102380.75
2023-02-11T03:08:09.691Z,102380.03
2023-02-11T03:08:53.032Z,102380.03
2023-02-11T03:09:46.945Z,102380.91
2023-02-11T03:10:40.703Z,102380.91
2023-02-11T03:11:17.284Z,102380.09
2023-02-11T03:11:49.530Z,102376.69
2023-02-11T03:12:24.508Z,102381.78
2023-02-11T03:12:58.072Z,102380.09
2023-02-11T03:13:33.999Z,102376.78
2023-02-11T03:14:10.376Z,102378.59
2023-02-11T03:14:42.187Z,102384.63
2023-02-11T03:15:16.686Z,102380.38
2023-02-11T03:15:52.458Z,102383.84
2023-02-11T03:16:28.238Z,102375.34
2023-02-11T03:17:04.411Z,102387.22
2023-02-11T03:17:41.421Z,102377.84
2023-02-11T03:18:18.694Z,102382.94
2023-02-11T03:19:01.530Z,102379.53
2023-02-11T03:19:41.193Z,102375.06
2023-02-11T03:20:17.589Z,102371.69
2023-02-11T03:20:53.416Z,102373.38
2023-02-11T03:21:26.633Z,102373.31
2023-02-11T03:21:58.527Z,102369.16
2023-02-11T03:22:42.745Z,102366.75
2023-02-11T03:23:23.802Z,102373.56
2023-02-11T03:23:59.584Z,102368.34
2023-02-11T03:24:35.145Z,102365.00
2023-02-11T03:25:07.747Z,102364.19
2023-02-11T03:25:49.166Z,102369.28
2023-02-11T03:26:33.758Z,102376.09
2023-02-11T03:27:29.211Z,102371.84
2023-02-11T03:28:08.787Z,102372.56
2023-02-11T03:28:50.266Z,102368.34
2023-02-11T03:29:35.400Z,102368.22
2023-02-11T03:30:18.710Z,102371.69
2023-02-11T03:31:02.332Z,102367.16
2023-02-11T03:31:45.996Z,102373.22
2023-02-11T03:32:28.228Z,102366.34
2023-02-11T03:33:14.152Z,102368.78
2023-02-11T03:34:05.947Z,102364.63
2023-02-11T03:34:45.979Z,102371.44
2023-02-11T03:35:24.555Z,102371.28
2023-02-11T03:36:15.214Z,102362.78
2023-02-11T03:36:54.624Z,102361.91
2023-02-11T03:37:33.472Z,102357.66
2023-02-11T03:38:33.362Z,102357.50
2023-02-11T03:39:07.360Z,102359.06
2023-02-11T03:39:55.005Z,102359.03
2023-02-11T03:40:32.595Z,102357.34
2023-02-11T03:41:08.412Z,102354.72
2023-02-11T03:41:43.035Z,102354.66
2023-02-11T03:42:16.353Z,102358.06
2023-02-11T03:43:01.187Z,102356.22
2023-02-11T03:43:48.768Z,102349.63
2023-02-11T03:44:25.322Z,102342.00
2023-02-11T03:45:05.335Z,102348.09
2023-02-11T03:45:39.535Z,102342.13
2023-02-11T03:46:15.261Z,102343.84
2023-02-11T03:46:51.556Z,102345.53
2023-02-11T03:47:27.590Z,102340.44
2023-02-11T03:48:11.796Z,102334.66
2023-02-11T03:48:50.107Z,102331.25
2023-02-11T03:49:27.741Z,102336.31
2023-02-11T03:50:03.077Z,102336.31
2023-02-11T03:50:37.425Z,102338.19
2023-02-11T03:51:12.725Z,102333.91
2023-02-11T03:51:45.152Z,102332.25
2023-02-11T03:52:20.388Z,102326.28
2023-02-11T03:52:54.154Z,102330.63
2023-02-11T03:53:25.830Z,102322.16
2023-02-11T03:54:02.132Z,102325.63
2023-02-11T03:54:35.805Z,102327.41
2023-02-11T03:55:13.426Z,102322.31
2023-02-11T03:55:49.189Z,102333.22
2023-02-11T03:56:26.899Z,102326.44
2023-02-11T03:57:02.565Z,102322.16
2023-02-11T03:57:34.771Z,102317.84
2023-02-11T03:58:07.281Z,102324.72
2023-02-11T03:58:38.975Z,102327.41
2023-02-11T03:59:10.665Z,102318.81
2023-02-11T03:59:57.785Z,102318.06
2023-02-11T04:00:36.636Z,102317.31
2023-02-11T04:01:09.901Z,102319.91
2023-02-11T04:01:41.636Z,102327.53
2023-02-11T04:02:13.329Z,102320.81
2023-02-11T04:02:45.083Z,102319.03
2023-02-11T04:03:16.922Z,102314.00
2023-02-11T04:03:48.610Z,102313.31
2023-02-11T04:04:20.593Z,102316.56
2023-02-11T04:04:52.256Z,102306.50
2023-02-11T04:05:23.927Z,102312.50
2023-02-11T04:05:55.550Z,102307.38
2023-02-11T04:06:27.249Z,102308.91
2023-02-11T04:06:58.898Z,102303.00
2023-02-11T04:07:30.895Z,102304.88
2023-02-11T04:08:03.459Z,102305.63
2023-02-11T04:08:35.187Z,102304.81
2023-02-11T04:09:07.230Z,102299.78
2023-02-11T04:09:39.044Z,102305.75
2023-02-11T04:10:12.212Z,102302.44
2023-02-11T04:10:43.878Z,102300.75
2023-02-11T04:11:15.578Z,102303.25
2023-02-11T04:11:47.246Z,102301.47
2023-02-11T04:12:19.377Z,102297.19
2023-02-11T04:12:51.095Z,102304.88
2023-02-11T04:13:23.236Z,102301.41
2023-02-11T04:13:54.933Z,102301.41
2023-02-11T04:14:26.642Z,102304.88
2023-02-11T04:14:58.565Z,102295.44
2023-02-11T04:15:30.300Z,102300.53
2023-02-11T04:16:02.026Z,102300.53
2023-02-11T04:16:33.790Z,102298.00
2023-02-11T04:17:05.910Z,102294.50
2023-02-11T04:17:37.943Z,102294.50
2023-02-11T04:18:09.681Z,102287.88
2023-02-11T04:18:41.326Z,102298.16
2023-02-11T04:19:13.009Z,102295.66
2023-02-11T04:19:44.758Z,102288.84
2023-02-11T04:20:16.583Z,102294.63
2023-02-11T04:20:50.379Z,102293.94
2023-02-11T04:21:22.032Z,102293.94
2023-02-11T04:21:53.722Z,102292.97
2023-02-11T04:22:25.519Z,102300.53
2023-02-11T04:22:57.269Z,102289.41
2023-02-11T04:23:29.174Z,102288.50
2023-02-11T04:24:00.809Z,102292.72
2023-02-11T04:24:32.530Z,102297.63
2023-02-11T04:25:05.942Z,102292.63
2023-02-11T04:25:37.641Z,102293.47
2023-02-11T04:26:09.321Z,102289.13
2023-02-11T04:26:41.111Z,102286.47
2023-02-11T04:27:12.902Z,102291.66
2023-02-11T04:27:44.597Z,102288.34
2023-02-11T04:28:16.300Z,102287.56
2023-02-11T04:28:47.996Z,102285.84
2023-02-11T04:29:19.700Z,102284.97
2023-02-11T04:29:51.555Z,102286.56
2023-02-11T04:30:23.360Z,102281.44
2023-02-11T04:30:56.102Z,102288.25
2023-02-11T04:31:27.895Z,102284.03
2023-02-11T04:31:59.583Z,102290.94
2023-02-11T04:32:31.318Z,102293.47
2023-02-11T04:33:03.152Z,102289.03
2023-02-11T04:33:34.786Z,102290.88
2023-02-11T04:34:06.458Z,102287.56
2023-02-11T04:34:38.336Z,102285.78
2023-02-11T04:35:10.309Z,102284.91
2023-02-11T04:35:41.957Z,102290.94
2023-02-11T04:36:13.644Z,102284.13
2023-02-11T04:36:45.453Z,102289.88
2023-02-11T04:37:17.129Z,102285.72
2023-02-11T04:37:48.823Z,102283.16
2023-02-11T04:38:20.571Z,102282.31
2023-02-11T04:38:52.220Z,102282.88
2023-02-11T04:39:23.890Z,102281.78
2023-02-11T04:39:55.553Z,102285.22
2023-02-11T04:40:27.300Z,102287.69
2023-02-11T04:41:00.596Z,102277.41
2023-02-11T04:41:32.281Z,102282.50
2023-02-11T04:42:04.154Z,102276.41
2023-02-11T04:42:35.760Z,102280.56
2023-02-11T04:43:07.503Z,102278.88
2023-02-11T04:43:39.264Z,102281.28
2023-02-11T04:44:11.108Z,102279.28
2023-02-11T04:44:42.789Z,102282.72
2023-02-11T04:45:14.477Z,102280.84
2023-02-11T04:45:46.153Z,102287.66
2023-02-11T04:46:17.818Z,102285.97
2023-02-11T04:46:49.528Z,102281.66
2023-02-11T04:47:21.379Z,102279.81
2023-02-11T04:47:53.052Z,102284.75
2023-02-11T04:48:25.186Z,102278.81
2023-02-11T04:48:57.638Z,102283.03
2023-02-11T04:49:29.322Z,102289.75
2023-02-11T04:50:01.061Z,102284.50
2023-02-11T04:50:32.977Z,102281.97
2023-02-11T04:51:05.023Z,102281.16
2023-02-11T04:51:36.658Z,102283.03
2023-02-11T04:52:09.278Z,102280.47
2023-02-11T04:52:40.948Z,102285.56
2023-02-11T04:53:12.601Z,102280.47
2023-02-11T04:53:44.325Z,102279.63
2023-02-11T04:54:16.605Z,102284.66
2023-02-11T04:54:48.308Z,102278.75
2023-02-11T04:55:20.054Z,102286.25
2023-02-11T04:55:52.392Z,102284.50
2023-02-11T04:56:24.390Z,102284.66
2023-02-11T04:56:56.091Z,102286.31
2023-02-11T04:57:27.793Z,102281.28
2023-02-11T04:57:59.451Z,102275.41
2023-02-11T04:58:31.289Z,102283.84
2023-02-11T04:59:03.672Z,102281.28
2023-02-11T04:59:35.374Z,102278.75
2023-02-11T05:00:08.280Z,102278.81
2023-02-11T05:00:39.986Z,102279.66
2023-02-11T05:01:14.578Z,102279.72
2023-02-11T05:01:46.335Z,102276.25
2023-02-11T05:02:17.982Z,102272.84
2023-02-11T05:02:49.666Z,102277.13
2023-02-11T05:03:21.528Z,102280.47
2023-02-11T05:03:53.555Z,102281.28
2023-02-11T05:04:25.491Z,102282.22
2023-02-11T05:04:57.180Z,102277.94
2023-02-11T05:05:28.843Z,102277.28
2023-02-11T05:06:00.563Z,102277.28
2023-02-11T05:06:32.238Z,102286.50
2023-02-11T05:07:03.910Z,102285.69
2023-02-11T05:07:35.694Z,102289.09
2023-02-11T05:08:08.542Z,102287.50
2023-02-11T05:08:40.310Z,102285.81
2023-02-11T05:09:14.992Z,102289.84
2023-02-11T05:09:46.731Z,102290.72
2023-02-11T05:10:18.433Z,102292.38
2023-02-11T05:10:50.067Z,102288.16
2023-02-11T05:11:24.987Z,102294.06
2023-02-11T05:11:56.678Z,102277.94
2023-02-11T05:12:28.326Z,102286.38
2023-02-11T05:13:00.235Z,102288.94
2023-02-11T05:13:32.393Z,102288.00
2023-02-11T05:14:04.085Z,102293.75
2023-02-11T05:14:35.767Z,102295.50
2023-02-11T05:15:07.746Z,102293.72
2023-02-11T05:15:39.397Z,102297.97
2023-02-11T05:16:11.203Z,102292.09
2023-02-11T05:16:42.987Z,102292.94
2023-02-11T05:17:14.703Z,102291.28
2023-02-11T05:17:46.580Z,102289.78
2023-02-11T05:18:18.207Z,102288.78
2023-02-11T05:18:52.443Z,102292.28
2023-02-11T05:19:24.295Z,102294.81
2023-02-11T05:19:55.965Z,102289.03
2023-02-11T05:20:27.634Z,102284.69
2023-02-11T05:20:59.300Z,102283.06
2023-02-11T05:21:31.100Z,102294.19
2023-02-11T05:22:03.755Z,102292.38
2023-02-11T05:22:35.501Z,102294.94
2023-02-11T05:23:07.222Z,102294.88
2023-02-11T05:23:40.204Z,102288.13
2023-02-11T05:24:11.853Z,102289.03
2023-02-11T05:24:43.479Z,102294.19
2023-02-11T05:25:15.153Z,102298.53
2023-02-11T05:25:46.827Z,102293.56
2023-02-11T05:26:19.049Z,102296.16
2023-02-11T05:26:50.708Z,102297.91
2023-02-11T05:27:22.519Z,102291.94
2023-02-11T05:27:54.193Z,102289.38
2023-02-11T05:28:28.260Z,102289.38
2023-02-11T05:29:00.056Z,102293.81
2023-02-11T05:29:32.045Z,102282.88
2023-02-11T05:30:05.633Z,102284.53
2023-02-11T05:30:37.310Z,102293.00
2023-02-11T05:31:09.521Z,102293.84
2023-02-11T05:31:41.217Z,102288.78
2023-02-11T05:32:12.919Z,102285.34
2023-02-11T05:32:44.566Z,102287.09
2023-02-11T05:33:16.260Z,102283.69
2023-02-11T05:33:47.915Z,102282.00
2023-02-11T05:34:19.719Z,102284.38
2023-02-11T05:34:51.410Z,102286.94
2023-02-11T05:35:23.217Z,102286.94
2023-02-11T05:36:08.305Z,102282.72
2023-02-11T05:36:39.954Z,102284.31
2023-02-11T05:37:11.734Z,102278.34
2023-02-11T05:37:43.447Z,102274.00
2023-02-11T05:38:15.225Z,102276.56
2023-02-11T05:38:46.892Z,102276.50
2023-02-11T05:39:18.555Z,102269.69
2023-02-11T05:39:50.232Z,102271.47
2023-02-11T05:40:21.955Z,102272.38
2023-02-11T05:40:54.177Z,102265.63
2023-02-11T05:41:25.851Z,102270.72
2023-02-11T05:41:57.553Z,102272.53
2023-02-11T05:42:29.210Z,102270.84
2023-02-11T05:43:00.897Z,102274.13
2023-02-11T05:43:34.829Z,102272.53
2023-02-11T05:44:06.553Z,102280.28
2023-02-11T05:44:38.251Z,102276.91
2023-02-11T05:45:10.043Z,102277.72
2023-02-11T05:45:41.708Z,102278.72
2023-02-11T05:46:13.373Z,102280.41
2023-02-11T05:46:45.199Z,102276.28
2023-02-11T05:47:16.868Z,102277.09
2023-02-11T05:47:48.579Z,102278.72
2023-02-11T05:48:20.212Z,102271.00
2023-02-11T05:48:51.949Z,102273.56
2023-02-11T05:49:23.763Z,102270.22
2023-02-11T05:49:55.386Z,102270.22
2023-02-11T05:50:27.072Z,102271.91
2023-02-11T05:50:59.342Z,102271.97
2023-02-11T05:51:30.972Z,102271.00
2023-02-11T05:52:02.688Z,102267.50
2023-02-11T05:52:34.390Z,102274.31
2023-02-11T05:53:06.836Z,102270.97
2023-02-11T05:53:38.689Z,102273.56
2023-02-11T05:54:10.661Z,102270.97
2023-02-11T05:54:42.420Z,102273.69
2023-02-11T05:55:14.210Z,102279.66
2023-02-11T05:55:46.340Z,102273.69
2023-02-11T05:56:18.148Z,102282.13
2023-02-11T05:56:49.800Z,102274.44
2023-02-11T05:57:21.473Z,102276.03
2023-02-11T05:57:53.114Z,102273.44
2023-02-11T05:58:24.783Z,102274.94
2023-02-11T05:58:58.307Z,102271.72
2023-02-11T05:59:29.939Z,102265.72
2023-02-11T06:00:01.605Z,102268.25
2023-02-11T06:00:33.591Z,102283.63
2023-02-11T06:01:05.349Z,102274.31
2023-02-11T06:01:37.046Z,102278.66
2023-02-11T06:02:09.733Z,102274.38
2023-02-11T06:02:44.001Z,102277.78
2023-02-11T06:03:15.833Z,102283.72
2023-02-11T06:03:50.045Z,102280.41
2023-02-11T06:04:21.950Z,102283.88
2023-02-11T06:04:53.643Z,102278.03
2023-02-11T06:05:25.415Z,102283.97
2023-02-11T06:05:57.073Z,102283.09
2023-02-11T06:06:28.728Z,102283.97
2023-02-11T06:07:00.519Z,102286.53
2023-02-11T06:07:32.292Z,102285.72
2023-02-11T06:08:04.127Z,102282.38
2023-02-11T06:08:38.135Z,102282.38
2023-02-11T06:09:11.817Z,102285.03
2023-02-11T06:09:43.563Z,102285.94
2023-02-11T06:10:15.349Z,102290.31
2023-02-11T06:10:47.183Z,102288.53
2023-02-11T06:11:18.915Z,102290.31
2023-02-11T06:11:50.603Z,102289.41
2023-02-11T06:12:22.241Z,102286.94
2023-02-11T06:12:53.921Z,102291.97
2023-02-11T06:13:25.633Z,102292.91
2023-02-11T06:13:57.269Z,102288.53
2023-02-11T06:14:28.922Z,102287.75
2023-02-11T06:15:00.653Z,102291.97
2023-02-11T06:15:32.285Z,102291.19
2023-02-11T06:16:04.150Z,102291.28
2023-02-11T06:16:35.855Z,102279.53
2023-02-11T06:17:07.658Z,102291.31
2023-02-11T06:17:39.458Z,102294.00
2023-02-11T06:18:11.220Z,102286.28
2023-02-11T06:18:42.927Z,102278.66
2023-02-11T06:19:14.559Z,102287.09
2023-02-11T06:19:46.241Z,102287.97
2023-02-11T06:20:18.004Z,102281.34
2023-02-11T06:20:49.653Z,102277.97
2023-02-11T06:21:21.310Z,102277.09
2023-02-11T06:21:53.002Z,102285.66
2023-02-11T06:22:24.706Z,102281.50
2023-02-11T06:22:56.383Z,102285.72
2023-02-11T06:23:30.235Z,102276.47
2023-02-11T06:24:02.149Z,102277.34
2023-02-11T06:24:58.507Z,102280.84
2023-02-11T06:25:25.388Z,102271.50
2023-02-11T06:26:02.270Z,102274.13
2023-02-11T06:26:34.016Z,102283.53
2023-02-11T06:27:06.047Z,102270.69
2023-02-11T06:27:38.156Z,102275.75
2023-02-11T06:28:10.775Z,102280.19
2023-02-11T06:28:42.493Z,102273.22
2023-02-11T06:29:14.274Z,102269.75
2023-02-11T06:29:46.957Z,102274.81
2023-02-11T06:30:18.643Z,102270.63
2023-02-11T06:30:50.429Z,102270.63
2023-02-11T06:31:22.240Z,102280.91
2023-02-11T06:31:54.041Z,102269.84
2023-02-11T06:32:42.648Z,102272.31
2023-02-11T06:33:15.814Z,102273.22
2023-02-11T06:33:47.483Z,102273.22
2023-02-11T06:34:19.204Z,102271.59
2023-02-11T06:34:50.886Z,102275.00
2023-02-11T06:35:22.596Z,102270.84
2023-02-11T06:35:54.270Z,102270.91
2023-02-11T06:36:26.015Z,102275.09
2023-02-11T06:36:57.674Z,102270.09
2023-02-11T06:37:29.332Z,102270.09
2023-02-11T06:38:01.718Z,102271.00
2023-02-11T06:38:33.395Z,102270.13
2023-02-11T06:39:05.499Z,102276.03